sensor_id;sensor_type;location;lat;lon;timestamp;pressure;altitude;pressure_sealevel;temperature;humidity
11643;BME280;5877;50.930;6.918;2023-02-20T00:01:48;102084.34;;;4.99;83.15
11643;BME280;5877;50.930;6.918;2023-02-20T00:06:41;102133.44;;;5.31;83.91
11643;BME280;5877;50.930;6.918;2023-02-20T00:11:33;102071.19;;;4.91;83.93
11643;BME280;5877;50.930;6.918;2023-02-20T00:16:25;102027.00;;;4.62;84.18
11643;BME280;5877;50.930;6.918;2023-02-20T00:21:17;102102.81;;;5.15;84.24
11643;BME280;5877;50.930;6.918;2023-02-20T00:26:10;102110.63;;;5.15;85.02
11643;BME280;5877;50.930;6.918;2023-02-20T00:31:04;102051.91;;;4.74;84.39
11643;BME280;5877;50.930;6.918;2023-02-20T00:35:57;101843.19;;;3.38;84.31
11643;BME280;5877;50.930;6.918;2023-02-20T00:40:48;101996.09;;;4.49;85.02
11643;BME280;5877;50.930;6.918;2023-02-20T00:45:40;102100.09;;;5.07;85.12
11643;BME280;5877;50.930;6.918;2023-02-20T00:50:32;101881.91;;;3.70;84.76
11643;BME280;5877;50.930;6.918;2023-02-20T00:55:23;101844.44;;;3.44;84.20
11643;BME280;5877;50.930;6.918;2023-02-20T01:00:22;102010.03;;;4.67;84.81
11643;BME280;5877;50.930;6.918;2023-02-20T01:05:14;101746.22;;;3.20;84.23
11643;BME280;5877;50.930;6.918;2023-02-20T01:10:06;102004.78;;;4.96;83.60
11643;BME280;5877;50.930;6.918;2023-02-20T01:14:58;102025.28;;;5.18;82.87
11643;BME280;5877;50.930;6.918;2023-02-20T01:19:52;101458.59;;;1.83;81.96
11643;BME280;5877;50.930;6.918;2023-02-20T01:24:43;101890.84;;;4.63;81.16
11643;BME280;5877;50.930;6.918;2023-02-20T01:29:39;101941.66;;;4.94;81.24
11643;BME280;5877;50.930;6.918;2023-02-20T01:34:30;102020.22;;;5.44;81.06
11643;BME280;5877;50.930;6.918;2023-02-20T01:39:25;101995.03;;;5.35;81.48
11643;BME280;5877;50.930;6.918;2023-02-20T01:44:30;102038.50;;;5.62;80.29
11643;BME280;5877;50.930;6.918;2023-02-20T01:54:24;101957.59;;;5.18;80.34
11643;BME280;5877;50.930;6.918;2023-02-20T01:59:18;102017.03;;;5.50;80.35
11643;BME280;5877;50.930;6.918;2023-02-20T02:04:12;101900.66;;;4.78;80.66
11643;BME280;5877;50.930;6.918;2023-02-20T02:09:11;101983.84;;;5.25;80.75
11643;BME280;5877;50.930;6.918;2023-02-20T02:14:06;101981.16;;;5.17;80.46
11643;BME280;5877;50.930;6.918;2023-02-20T02:29:52;102001.84;;;5.18;80.46
11643;BME280;5877;50.930;6.918;2023-02-20T02:35:14;101999.13;;;5.10;80.26
11643;BME280;5877;50.930;6.918;2023-02-20T02:40:27;101994.41;;;4.86;81.32
11643;BME280;5877;50.930;6.918;2023-02-20T02:45:33;101685.72;;;2.81;81.81
11643;BME280;5877;50.930;6.918;2023-02-20T02:50:32;101744.16;;;3.14;81.77
11643;BME280;5877;50.930;6.918;2023-02-20T02:55:27;101897.34;;;4.20;81.80
11643;BME280;5877;50.930;6.918;2023-02-20T03:05:35;101855.78;;;3.91;81.49
11643;BME280;5877;50.930;6.918;2023-02-20T03:10:36;101782.56;;;3.58;81.24
11643;BME280;5877;50.930;6.918;2023-02-20T03:15:33;101936.44;;;4.47;81.53
11643;BME280;5877;50.930;6.918;2023-02-20T03:20:28;101937.13;;;4.40;82.20
11643;BME280;5877;50.930;6.918;2023-02-20T03:25:30;101936.72;;;4.25;81.73
11643;BME280;5877;50.930;6.918;2023-02-20T03:30:37;101774.63;;;3.21;82.55
11643;BME280;5877;50.930;6.918;2023-02-20T03:35:34;101877.13;;;3.75;82.80
11643;BME280;5877;50.930;6.918;2023-02-20T03:40:44;101871.50;;;3.70;82.95
11643;BME280;5877;50.930;6.918;2023-02-20T03:46:02;101846.22;;;3.53;83.81
11643;BME280;5877;50.930;6.918;2023-02-20T03:50:55;101728.28;;;2.78;83.49
11643;BME280;5877;50.930;6.918;2023-02-20T03:55:51;101790.84;;;3.14;83.71
11643;BME280;5877;50.930;6.918;2023-02-20T04:00:47;101800.69;;;3.20;83.74
11643;BME280;5877;50.930;6.918;2023-02-20T04:05:43;101923.47;;;3.99;83.33
11643;BME280;5877;50.930;6.918;2023-02-20T04:10:42;101821.34;;;3.31;84.17
11643;BME280;5877;50.930;6.918;2023-02-20T04:15:35;101882.31;;;3.75;83.88
11643;BME280;5877;50.930;6.918;2023-02-20T04:20:28;101765.84;;;3.03;83.53
11643;BME280;5877;50.930;6.918;2023-02-20T04:30:33;101871.66;;;3.78;83.91
11643;BME280;5877;50.930;6.918;2023-02-20T04:35:25;101833.50;;;3.40;83.91
11643;BME280;5877;50.930;6.918;2023-02-20T04:40:21;101895.44;;;3.93;83.31
11643;BME280;5877;50.930;6.918;2023-02-20T04:45:13;101789.09;;;3.24;83.80
11643;BME280;5877;50.930;6.918;2023-02-20T04:50:07;101763.28;;;3.13;83.86
11643;BME280;5877;50.930;6.918;2023-02-20T04:54:59;101697.31;;;2.77;83.35
11643;BME280;5877;50.930;6.918;2023-02-20T04:59:51;101528.34;;;1.85;83.23
11643;BME280;5877;50.930;6.918;2023-02-20T05:04:42;101775.44;;;3.32;83.11
11643;BME280;5877;50.930;6.918;2023-02-20T05:09:34;101888.75;;;4.10;83.22
11643;BME280;5877;50.930;6.918;2023-02-20T05:14:26;101910.06;;;4.13;83.44
11643;BME280;5877;50.930;6.918;2023-02-20T05:19:18;101462.16;;;1.33;82.75
11643;BME280;5877;50.930;6.918;2023-02-20T05:24:09;101896.00;;;3.97;83.62
11643;BME280;5877;50.930;6.918;2023-02-20T05:29:01;101887.91;;;3.90;83.84
11643;BME280;5877;50.930;6.918;2023-02-20T05:33:53;101429.09;;;1.06;83.74
11643;BME280;5877;50.930;6.918;2023-02-20T05:38:44;101883.97;;;3.86;83.71
11643;BME280;5877;50.930;6.918;2023-02-20T05:43:39;101821.50;;;3.49;84.21
11643;BME280;5877;50.930;6.918;2023-02-20T05:48:31;101703.19;;;2.79;84.11
11643;BME280;5877;50.930;6.918;2023-02-20T05:53:23;101668.38;;;2.52;84.18
11643;BME280;5877;50.930;6.918;2023-02-20T05:58:14;101838.56;;;3.61;84.00
11643;BME280;5877;50.930;6.918;2023-02-20T06:03:07;101465.59;;;1.43;84.02
11643;BME280;5877;50.930;6.918;2023-02-20T06:07:58;101756.88;;;3.26;83.62
11643;BME280;5877;50.930;6.918;2023-02-20T06:12:50;101810.84;;;3.62;84.28
11643;BME280;5877;50.930;6.918;2023-02-20T06:17:42;101691.88;;;2.89;83.67
11643;BME280;5877;50.930;6.918;2023-02-20T06:22:35;101873.56;;;3.96;83.67
11643;BME280;5877;50.930;6.918;2023-02-20T06:27:26;101288.31;;;0.29;83.05
11643;BME280;5877;50.930;6.918;2023-02-20T06:32:18;101814.66;;;3.48;83.94
11643;BME280;5877;50.930;6.918;2023-02-20T06:37:10;101734.19;;;3.00;84.25
11643;BME280;5877;50.930;6.918;2023-02-20T06:42:02;101836.41;;;3.76;84.25
11643;BME280;5877;50.930;6.918;2023-02-20T06:46:54;101742.13;;;3.17;84.41
11643;BME280;5877;50.930;6.918;2023-02-20T06:51:46;101727.78;;;3.13;84.02
11643;BME280;5877;50.930;6.918;2023-02-20T06:56:37;101834.34;;;3.99;83.24
11643;BME280;5877;50.930;6.918;2023-02-20T07:01:35;101683.13;;;3.10;83.46
11643;BME280;5877;50.930;6.918;2023-02-20T07:06:29;101723.69;;;3.40;82.41
11643;BME280;5877;50.930;6.918;2023-02-20T07:11:22;101757.25;;;3.80;82.61
11643;BME280;5877;50.930;6.918;2023-02-20T07:16:15;101848.88;;;4.48;81.92
11643;BME280;5877;50.930;6.918;2023-02-20T07:21:07;101883.91;;;4.91;80.94
11643;BME280;5877;50.930;6.918;2023-02-20T07:25:59;101537.41;;;2.87;80.70
11643;BME280;5877;50.930;6.918;2023-02-20T07:30:51;101790.25;;;4.63;79.48
11643;BME280;5877;50.930;6.918;2023-02-20T07:35:43;101806.53;;;4.93;79.42
11643;BME280;5877;50.930;6.918;2023-02-20T07:40:35;101865.44;;;5.57;78.05
11643;BME280;5877;50.930;6.918;2023-02-20T07:45:30;101856.94;;;5.72;76.78
11643;BME280;5877;50.930;6.918;2023-02-20T07:50:22;101909.97;;;6.60;74.68
11643;BME280;5877;50.930;6.918;2023-02-20T07:55:15;101909.75;;;7.64;71.79
11643;BME280;5877;50.930;6.918;2023-02-20T08:00:08;101865.72;;;9.43;64.80
11643;BME280;5877;50.930;6.918;2023-02-20T08:05:03;101771.22;;;10.34;59.67
11643;BME280;5877;50.930;6.918;2023-02-20T08:09:54;101803.69;;;10.48;59.23
11643;BME280;5877;50.930;6.918;2023-02-20T08:14:49;101872.03;;;10.02;60.56
11643;BME280;5877;50.930;6.918;2023-02-20T08:19:41;101915.84;;;9.71;62.62
11643;BME280;5877;50.930;6.918;2023-02-20T08:24:32;101550.91;;;7.32;63.85
11643;BME280;5877;50.930;6.918;2023-02-20T08:29:24;101861.84;;;9.62;62.70
11643;BME280;5877;50.930;6.918;2023-02-20T08:34:16;101915.75;;;10.10;60.90
11643;BME280;5877;50.930;6.918;2023-02-20T08:39:07;101918.53;;;10.31;61.62
11643;BME280;5877;50.930;6.918;2023-02-20T08:43:59;101660.81;;;9.10;59.28
11643;BME280;5877;50.930;6.918;2023-02-20T08:48:51;101780.59;;;9.62;59.59
11643;BME280;5877;50.930;6.918;2023-02-20T08:53:43;101707.72;;;8.97;60.11
11643;BME280;5877;50.930;6.918;2023-02-20T08:58:34;101777.59;;;10.02;59.07
11643;BME280;5877;50.930;6.918;2023-02-20T09:03:26;101864.25;;;10.32;58.18
11643;BME280;5877;50.930;6.918;2023-02-20T09:08:18;101918.75;;;10.59;58.86
11643;BME280;5877;50.930;6.918;2023-02-20T09:13:10;101850.75;;;10.64;57.49
11643;BME280;5877;50.930;6.918;2023-02-20T09:18:02;101921.31;;;11.48;56.99
11643;BME280;5877;50.930;6.918;2023-02-20T09:22:56;101912.59;;;12.26;54.11
11643;BME280;5877;50.930;6.918;2023-02-20T09:27:48;101884.44;;;12.89;51.63
11643;BME280;5877;50.930;6.918;2023-02-20T09:32:40;101712.66;;;12.52;49.96
11643;BME280;5877;50.930;6.918;2023-02-20T09:37:32;101852.38;;;13.40;50.05
11643;BME280;5877;50.930;6.918;2023-02-20T09:52:21;101608.97;;;10.59;54.23
11643;BME280;5877;50.930;6.918;2023-02-20T09:57:21;101881.53;;;12.77;52.64
11643;BME280;5877;50.930;6.918;2023-02-20T10:02:18;101839.81;;;12.81;52.48
11643;BME280;5877;50.930;6.918;2023-02-20T10:17:28;101882.06;;;13.75;51.61
11643;BME280;5877;50.930;6.918;2023-02-20T10:27:55;101880.44;;;14.33;49.55
11643;BME280;5877;50.930;6.918;2023-02-20T10:33:32;101789.47;;;13.37;49.94
11643;BME280;5877;50.930;6.918;2023-02-20T10:38:37;101720.78;;;12.64;50.86
11643;BME280;5877;50.930;6.918;2023-02-20T10:43:41;101871.13;;;13.84;50.42
11643;BME280;5877;50.930;6.918;2023-02-20T10:48:34;101765.41;;;12.72;50.63
11643;BME280;5877;50.930;6.918;2023-02-20T10:58:32;101699.84;;;12.43;50.75
11643;BME280;5877;50.930;6.918;2023-02-20T11:03:47;101893.59;;;13.60;51.02
11643;BME280;5877;50.930;6.918;2023-02-20T11:08:40;101755.31;;;13.02;51.27
11643;BME280;5877;50.930;6.918;2023-02-20T11:13:32;101838.63;;;13.57;51.02
11643;BME280;5877;50.930;6.918;2023-02-20T11:18:30;101737.50;;;13.11;50.85
11643;BME280;5877;50.930;6.918;2023-02-20T11:23:41;101860.16;;;14.14;49.97
11643;BME280;5877;50.930;6.918;2023-02-20T11:28:33;101798.00;;;14.05;49.74
11643;BME280;5877;50.930;6.918;2023-02-20T11:33:29;101739.94;;;13.98;49.13
11643;BME280;5877;50.930;6.918;2023-02-20T11:43:14;101828.41;;;14.53;49.23
11643;BME280;5877;50.930;6.918;2023-02-20T11:48:11;101246.22;;;10.97;49.48
11643;BME280;5877;50.930;6.918;2023-02-20T11:53:04;101810.16;;;14.45;49.85
11643;BME280;5877;50.930;6.918;2023-02-20T11:57:58;101709.97;;;13.46;51.37
11643;BME280;5877;50.930;6.918;2023-02-20T12:03:21;101323.31;;;10.35;53.50
11643;BME280;5877;50.930;6.918;2023-02-20T12:08:40;101785.00;;;13.17;53.80
11643;BME280;5877;50.930;6.918;2023-02-20T12:13:40;101590.53;;;11.92;54.12
11643;BME280;5877;50.930;6.918;2023-02-20T12:19:01;101481.53;;;10.85;54.83
11643;BME280;5877;50.930;6.918;2023-02-20T12:39:27;101755.88;;;12.71;55.86
11643;BME280;5877;50.930;6.918;2023-02-20T12:44:35;101579.97;;;11.86;56.14
11643;BME280;5877;50.930;6.918;2023-02-20T13:05:24;101687.63;;;12.22;56.27
11643;BME280;5877;50.930;6.918;2023-02-20T13:10:22;101244.28;;;9.61;56.81
11643;BME280;5877;50.930;6.918;2023-02-20T13:20:25;101709.31;;;12.98;55.40
11643;BME280;5877;50.930;6.918;2023-02-20T13:30:22;101633.91;;;12.77;54.57
11643;BME280;5877;50.930;6.918;2023-02-20T13:45:47;101552.53;;;12.15;56.11
11643;BME280;5877;50.930;6.918;2023-02-20T13:50:39;101603.47;;;12.55;56.13
11643;BME280;5877;50.930;6.918;2023-02-20T13:55:32;101675.44;;;13.08;55.18
11643;BME280;5877;50.930;6.918;2023-02-20T14:00:28;101652.72;;;13.00;56.35
11643;BME280;5877;50.930;6.918;2023-02-20T14:05:30;101543.69;;;12.35;56.58
11643;BME280;5877;50.930;6.918;2023-02-20T14:15:21;101584.56;;;12.25;58.98
11643;BME280;5877;50.930;6.918;2023-02-20T14:20:22;101461.09;;;11.62;58.94
11643;BME280;5877;50.930;6.918;2023-02-20T14:25:26;101294.06;;;10.38;59.29
11643;BME280;5877;50.930;6.918;2023-02-20T14:30:22;101583.09;;;12.09;59.93
11643;BME280;5877;50.930;6.918;2023-02-20T14:40:33;101523.69;;;11.80;60.42
11643;BME280;5877;50.930;6.918;2023-02-20T14:45:28;101298.63;;;10.23;61.21
11643;BME280;5877;50.930;6.918;2023-02-20T14:50:28;101449.53;;;11.09;61.27
11643;BME280;5877;50.930;6.918;2023-02-20T14:55:24;101505.09;;;11.41;61.79
11643;BME280;5877;50.930;6.918;2023-02-20T15:05:09;101576.63;;;11.70;62.61
11643;BME280;5877;50.930;6.918;2023-02-20T15:10:22;101547.50;;;11.31;63.18
11643;BME280;5877;50.930;6.918;2023-02-20T15:15:18;101499.34;;;10.89;63.50
11643;BME280;5877;50.930;6.918;2023-02-20T15:25:34;101255.94;;;8.94;65.28
11643;BME280;5877;50.930;6.918;2023-02-20T15:30:25;101568.81;;;10.65;65.07
11643;BME280;5877;50.930;6.918;2023-02-20T15:35:24;101588.34;;;10.56;66.14
11643;BME280;5877;50.930;6.918;2023-02-20T15:45:12;101452.34;;;9.45;66.70
11643;BME280;5877;50.930;6.918;2023-02-20T15:50:04;101315.28;;;8.43;67.75
11643;BME280;5877;50.930;6.918;2023-02-20T15:54:56;101329.22;;;8.21;67.82
11643;BME280;5877;50.930;6.918;2023-02-20T15:59:49;101292.16;;;7.65;68.28
11643;BME280;5877;50.930;6.918;2023-02-20T16:04:41;101387.25;;;8.16;69.17
11643;BME280;5877;50.930;6.918;2023-02-20T16:09:32;101430.03;;;8.23;69.96
11643;BME280;5877;50.930;6.918;2023-02-20T16:14:24;101363.97;;;7.69;70.34
11643;BME280;5877;50.930;6.918;2023-02-20T16:19:19;101175.44;;;6.51;70.19
11643;BME280;5877;50.930;6.918;2023-02-20T16:24:23;101593.03;;;8.92;71.45
11643;BME280;5877;50.930;6.918;2023-02-20T16:29:21;101560.50;;;8.49;72.18
11643;BME280;5877;50.930;6.918;2023-02-20T16:34:22;101611.53;;;8.68;72.27
11643;BME280;5877;50.930;6.918;2023-02-20T16:39:15;101621.31;;;8.51;72.62
11643;BME280;5877;50.930;6.918;2023-02-20T16:49:27;101605.88;;;8.25;74.05
11643;BME280;5877;50.930;6.918;2023-02-20T16:54:18;101420.34;;;6.85;73.74
11643;BME280;5877;50.930;6.918;2023-02-20T16:59:10;101619.56;;;8.04;74.87
11643;BME280;5877;50.930;6.918;2023-02-20T17:04:02;101537.16;;;7.46;74.80
11643;BME280;5877;50.930;6.918;2023-02-20T17:08:54;101461.44;;;6.83;75.40
11643;BME280;5877;50.930;6.918;2023-02-20T17:13:46;101244.88;;;5.48;74.94
11643;BME280;5877;50.930;6.918;2023-02-20T17:18:37;101627.50;;;7.80;75.98
11643;BME280;5877;50.930;6.918;2023-02-20T17:23:29;101575.38;;;7.31;76.52
11643;BME280;5877;50.930;6.918;2023-02-20T17:28:21;101522.91;;;6.86;76.60
11643;BME280;5877;50.930;6.918;2023-02-20T17:33:12;101644.56;;;7.52;76.51
11643;BME280;5877;50.930;6.918;2023-02-20T17:38:06;101239.31;;;4.94;76.33
11643;BME280;5877;50.930;6.918;2023-02-20T17:42:58;101676.56;;;7.45;77.39
11643;BME280;5877;50.930;6.918;2023-02-20T17:47:50;101482.50;;;6.25;78.12
11643;BME280;5877;50.930;6.918;2023-02-20T17:52:41;101273.38;;;4.75;78.29
11643;BME280;5877;50.930;6.918;2023-02-20T17:57:37;101535.66;;;6.64;78.11
11643;BME280;5877;50.930;6.918;2023-02-20T18:02:29;101612.13;;;7.05;78.35
11643;BME280;5877;50.930;6.918;2023-02-20T18:07:21;101620.78;;;7.06;78.88
11643;BME280;5877;50.930;6.918;2023-02-20T18:12:13;101490.31;;;6.33;78.31
11643;BME280;5877;50.930;6.918;2023-02-20T18:17:04;101540.88;;;6.80;77.91
11643;BME280;5877;50.930;6.918;2023-02-20T18:21:56;101623.69;;;7.43;77.41
11643;BME280;5877;50.930;6.918;2023-02-20T18:26:48;101651.88;;;7.72;76.47
11643;BME280;5877;50.930;6.918;2023-02-20T18:31:39;101562.03;;;7.26;76.11
11643;BME280;5877;50.930;6.918;2023-02-20T18:36:31;101650.81;;;7.90;76.07
11643;BME280;5877;50.930;6.918;2023-02-20T18:41:23;101589.38;;;7.55;75.70
11643;BME280;5877;50.930;6.918;2023-02-20T18:46:33;101623.28;;;7.79;75.28
11643;BME280;5877;50.930;6.918;2023-02-20T18:51:33;101469.91;;;6.85;74.87
11643;BME280;5877;50.930;6.918;2023-02-20T18:56:25;101672.28;;;8.16;75.00
11643;BME280;5877;50.930;6.918;2023-02-20T19:01:18;101670.81;;;8.13;75.30
11643;BME280;5877;50.930;6.918;2023-02-20T19:06:11;101566.19;;;7.52;75.04
11643;BME280;5877;50.930;6.918;2023-02-20T19:11:12;101425.75;;;6.67;74.50
11643;BME280;5877;50.930;6.918;2023-02-20T19:16:05;101110.38;;;4.75;74.81
11643;BME280;5877;50.930;6.918;2023-02-20T19:20:57;101351.19;;;6.26;74.51
11643;BME280;5877;50.930;6.918;2023-02-20T19:25:49;101638.94;;;8.18;74.20
11643;BME280;5877;50.930;6.918;2023-02-20T19:30:40;101238.19;;;5.78;74.24
11643;BME280;5877;50.930;6.918;2023-02-20T19:35:32;101363.38;;;6.41;74.14
11643;BME280;5877;50.930;6.918;2023-02-20T19:40:24;101524.84;;;7.63;74.21
11643;BME280;5877;50.930;6.918;2023-02-20T19:45:16;101573.06;;;7.83;74.41
11643;BME280;5877;50.930;6.918;2023-02-20T19:50:08;101601.91;;;8.06;74.40
11643;BME280;5877;50.930;6.918;2023-02-20T19:55:00;101315.84;;;6.23;74.57
11643;BME280;5877;50.930;6.918;2023-02-20T19:59:52;101085.34;;;4.74;74.64
11643;BME280;5877;50.930;6.918;2023-02-20T20:04:44;101070.06;;;4.87;74.47
11643;BME280;5877;50.930;6.918;2023-02-20T20:09:35;101516.19;;;7.63;74.92
11643;BME280;5877;50.930;6.918;2023-02-20T20:14:28;101543.47;;;7.91;74.65
11643;BME280;5877;50.930;6.918;2023-02-20T20:19:20;101467.63;;;7.45;74.64
11643;BME280;5877;50.930;6.918;2023-02-20T20:24:12;101320.81;;;6.57;74.40
11643;BME280;5877;50.930;6.918;2023-02-20T20:29:04;101438.75;;;7.39;74.32
11643;BME280;5877;50.930;6.918;2023-02-20T20:33:55;101346.47;;;6.84;74.02
11643;BME280;5877;50.930;6.918;2023-02-20T20:38:47;101321.41;;;6.75;74.20
11643;BME280;5877;50.930;6.918;2023-02-20T20:43:45;101607.13;;;8.45;74.28
11643;BME280;5877;50.930;6.918;2023-02-20T20:48:42;101539.16;;;8.06;74.76
11643;BME280;5877;50.930;6.918;2023-02-20T20:53:34;101348.69;;;7.04;74.00
11643;BME280;5877;50.930;6.918;2023-02-20T20:58:26;101339.91;;;6.97;74.03
11643;BME280;5877;50.930;6.918;2023-02-20T21:03:18;101224.94;;;6.20;73.90
11643;BME280;5877;50.930;6.918;2023-02-20T21:08:10;101289.31;;;6.67;74.11
11643;BME280;5877;50.930;6.918;2023-02-20T21:13:01;101451.91;;;7.54;74.59
11643;BME280;5877;50.930;6.918;2023-02-20T21:17:53;101175.53;;;5.71;74.28
11643;BME280;5877;50.930;6.918;2023-02-20T21:22:45;101416.06;;;7.39;73.86
11643;BME280;5877;50.930;6.918;2023-02-20T21:27:37;101258.28;;;6.41;74.03
11643;BME280;5877;50.930;6.918;2023-02-20T21:32:29;101445.31;;;7.66;74.31
11643;BME280;5877;50.930;6.918;2023-02-20T21:37:21;101590.19;;;8.56;74.76
11643;BME280;5877;50.930;6.918;2023-02-20T21:42:13;101599.56;;;8.51;74.92
11643;BME280;5877;50.930;6.918;2023-02-20T21:47:23;101413.50;;;7.31;75.48
11643;BME280;5877;50.930;6.918;2023-02-20T21:52:16;101525.78;;;8.01;75.46
11643;BME280;5877;50.930;6.918;2023-02-20T21:57:09;101348.09;;;6.86;75.31
11643;BME280;5877;50.930;6.918;2023-02-20T22:02:01;101538.75;;;8.18;75.27
11643;BME280;5877;50.930;6.918;2023-02-20T22:06:53;101552.31;;;8.21;75.72
11643;BME280;5877;50.930;6.918;2023-02-20T22:12:04;101447.72;;;7.44;75.49
11643;BME280;5877;50.930;6.918;2023-02-20T22:17:16;101568.69;;;8.46;75.52
11643;BME280;5877;50.930;6.918;2023-02-20T22:22:26;100976.00;;;4.68;75.83
11643;BME280;5877;50.930;6.918;2023-02-20T22:27:37;101115.50;;;5.57;75.47
11643;BME280;5877;50.930;6.918;2023-02-20T22:32:47;101506.72;;;8.15;75.36
11643;BME280;5877;50.930;6.918;2023-02-20T22:38:00;101522.31;;;8.32;75.07
11643;BME280;5877;50.930;6.918;2023-02-20T22:43:11;101475.88;;;8.11;74.88
11643;BME280;5877;50.930;6.918;2023-02-20T22:48:21;101506.69;;;8.24;75.57
11643;BME280;5877;50.930;6.918;2023-02-20T22:53:32;101473.78;;;8.06;75.19
11643;BME280;5877;50.930;6.918;2023-02-20T22:58:42;101344.22;;;7.12;75.93
11643;BME280;5877;50.930;6.918;2023-02-20T23:03:52;101423.03;;;7.47;76.60
11643;BME280;5877;50.930;6.918;2023-02-20T23:09:04;101548.16;;;8.35;76.33
11643;BME280;5877;50.930;6.918;2023-02-20T23:14:14;101308.31;;;6.83;75.94
11643;BME280;5877;50.930;6.918;2023-02-20T23:19:24;101182.41;;;6.19;75.88
11643;BME280;5877;50.930;6.918;2023-02-20T23:24:35;101310.72;;;6.93;75.90
11643;BME280;5877;50.930;6.918;2023-02-20T23:29:45;101468.19;;;7.87;76.37
11643;BME280;5877;50.930;6.918;2023-02-20T23:34:55;101530.66;;;8.35;76.11
11643;BME280;5877;50.930;6.918;2023-02-20T23:40:06;101379.72;;;7.30;75.81
11643;BME280;5877;50.930;6.918;2023-02-20T23:45:27;101481.00;;;8.04;76.30
11643;BME280;5877;50.930;6.918;2023-02-20T23:50:37;101530.22;;;8.24;76.39
11643;BME280;5877;50.930;6.918;2023-02-20T23:55:48;101442.09;;;7.56;76.68
